sensor_id;sensor_type;location;lat;lon;timestamp;P1;durP1;ratioP1;P2;durP2;ratioP2
36931;SDS011;22847;42.654;23.370;2023-05-10T00:00:38;8.48;;;5.07;;
36931;SDS011;22847;42.654;23.370;2023-05-10T00:03:04;8.23;;;6.28;;
36931;SDS011;22847;42.654;23.370;2023-05-10T00:05:30;9.77;;;6.10;;
36931;SDS011;22847;42.654;23.370;2023-05-10T00:07:56;7.45;;;5.65;;
36931;SDS011;22847;42.654;23.370;2023-05-10T00:10:21;8.57;;;5.95;;
36931;SDS011;22847;42.654;23.370;2023-05-10T00:12:47;7.40;;;6.28;;
36931;SDS011;22847;42.654;23.370;2023-05-10T00:15:12;8.43;;;6.55;;
36931;SDS011;22847;42.654;23.370;2023-05-10T00:17:38;8.13;;;6.53;;
36931;SDS011;22847;42.654;23.370;2023-05-10T00:20:03;8.20;;;6.10;;
36931;SDS011;22847;42.654;23.370;2023-05-10T00:22:30;7.10;;;5.78;;
36931;SDS011;22847;42.654;23.370;2023-05-10T00:24:56;16.13;;;6.40;;
36931;SDS011;22847;42.654;23.370;2023-05-10T00:27:22;10.20;;;6.60;;
36931;SDS011;22847;42.654;23.370;2023-05-10T00:29:47;8.23;;;6.50;;
36931;SDS011;22847;42.654;23.370;2023-05-10T00:32:13;9.25;;;7.20;;
36931;SDS011;22847;42.654;23.370;2023-05-10T00:34:38;8.38;;;6.55;;
36931;SDS011;22847;42.654;23.370;2023-05-10T00:37:04;9.85;;;7.40;;
36931;SDS011;22847;42.654;23.370;2023-05-10T00:39:30;10.02;;;7.50;;
36931;SDS011;22847;42.654;23.370;2023-05-10T00:41:56;10.00;;;7.72;;
36931;SDS011;22847;42.654;23.370;2023-05-10T00:44:21;9.40;;;6.90;;
36931;SDS011;22847;42.654;23.370;2023-05-10T00:46:47;11.48;;;7.90;;
36931;SDS011;22847;42.654;23.370;2023-05-10T00:49:13;9.52;;;7.20;;
36931;SDS011;22847;42.654;23.370;2023-05-10T00:51:38;9.02;;;7.63;;
36931;SDS011;22847;42.654;23.370;2023-05-10T00:54:04;10.48;;;7.60;;
36931;SDS011;22847;42.654;23.370;2023-05-10T00:56:30;8.40;;;7.07;;
36931;SDS011;22847;42.654;23.370;2023-05-10T00:58:56;8.85;;;7.47;;
36931;SDS011;22847;42.654;23.370;2023-05-10T01:01:22;12.10;;;7.40;;
36931;SDS011;22847;42.654;23.370;2023-05-10T01:03:48;8.77;;;7.50;;
36931;SDS011;22847;42.654;23.370;2023-05-10T01:06:13;10.88;;;7.18;;
36931;SDS011;22847;42.654;23.370;2023-05-10T01:08:39;10.25;;;8.05;;
36931;SDS011;22847;42.654;23.370;2023-05-10T01:11:05;10.15;;;7.97;;
36931;SDS011;22847;42.654;23.370;2023-05-10T01:15:56;11.32;;;8.90;;
36931;SDS011;22847;42.654;23.370;2023-05-10T01:18:22;10.82;;;7.88;;
36931;SDS011;22847;42.654;23.370;2023-05-10T01:20:53;9.25;;;7.47;;
36931;SDS011;22847;42.654;23.370;2023-05-10T01:29:14;8.60;;;6.75;;
36931;SDS011;22847;42.654;23.370;2023-05-10T01:40:08;7.82;;;5.93;;
36931;SDS011;22847;42.654;23.370;2023-05-10T01:42:44;6.57;;;5.18;;
36931;SDS011;22847;42.654;23.370;2023-05-10T01:45:28;6.70;;;5.68;;
36931;SDS011;22847;42.654;23.370;2023-05-10T01:48:16;6.47;;;4.60;;
36931;SDS011;22847;42.654;23.370;2023-05-10T01:50:45;6.60;;;5.25;;
36931;SDS011;22847;42.654;23.370;2023-05-10T01:53:12;5.35;;;4.60;;
36931;SDS011;22847;42.654;23.370;2023-05-10T01:55:44;6.88;;;5.03;;
36931;SDS011;22847;42.654;23.370;2023-05-10T01:58:20;8.98;;;4.55;;
36931;SDS011;22847;42.654;23.370;2023-05-10T02:00:49;6.15;;;4.70;;
36931;SDS011;22847;42.654;23.370;2023-05-10T02:03:15;5.40;;;4.88;;
36931;SDS011;22847;42.654;23.370;2023-05-10T02:05:46;5.93;;;4.32;;
36931;SDS011;22847;42.654;23.370;2023-05-10T02:08:14;7.28;;;4.82;;
36931;SDS011;22847;42.654;23.370;2023-05-10T02:10:42;6.78;;;5.20;;
36931;SDS011;22847;42.654;23.370;2023-05-10T02:13:10;6.10;;;4.93;;
36931;SDS011;22847;42.654;23.370;2023-05-10T02:15:37;8.57;;;5.80;;
36931;SDS011;22847;42.654;23.370;2023-05-10T02:18:05;6.28;;;4.85;;
36931;SDS011;22847;42.654;23.370;2023-05-10T02:20:31;6.60;;;4.90;;
36931;SDS011;22847;42.654;23.370;2023-05-10T02:22:58;12.13;;;5.53;;
36931;SDS011;22847;42.654;23.370;2023-05-10T02:25:25;7.43;;;5.10;;
36931;SDS011;22847;42.654;23.370;2023-05-10T02:27:53;5.43;;;4.80;;
36931;SDS011;22847;42.654;23.370;2023-05-10T02:30:21;6.07;;;4.13;;
36931;SDS011;22847;42.654;23.370;2023-05-10T02:32:47;7.75;;;5.65;;
36931;SDS011;22847;42.654;23.370;2023-05-10T02:35:14;5.97;;;4.30;;
36931;SDS011;22847;42.654;23.370;2023-05-10T02:37:41;4.60;;;4.10;;
36931;SDS011;22847;42.654;23.370;2023-05-10T02:40:08;7.22;;;4.65;;
36931;SDS011;22847;42.654;23.370;2023-05-10T02:42:36;7.32;;;4.90;;
36931;SDS011;22847;42.654;23.370;2023-05-10T02:45:13;9.27;;;4.40;;
36931;SDS011;22847;42.654;23.370;2023-05-10T02:47:42;7.18;;;4.53;;
36931;SDS011;22847;42.654;23.370;2023-05-10T02:50:08;8.07;;;4.95;;
36931;SDS011;22847;42.654;23.370;2023-05-10T02:52:47;6.85;;;4.35;;
36931;SDS011;22847;42.654;23.370;2023-05-10T02:55:19;6.45;;;4.05;;
36931;SDS011;22847;42.654;23.370;2023-05-10T02:57:58;9.38;;;4.75;;
36931;SDS011;22847;42.654;23.370;2023-05-10T03:00:25;10.05;;;4.85;;
36931;SDS011;22847;42.654;23.370;2023-05-10T03:02:51;7.88;;;4.45;;
36931;SDS011;22847;42.654;23.370;2023-05-10T03:05:17;7.28;;;4.18;;
36931;SDS011;22847;42.654;23.370;2023-05-10T03:07:43;7.18;;;4.40;;
36931;SDS011;22847;42.654;23.370;2023-05-10T03:10:09;7.18;;;4.75;;
36931;SDS011;22847;42.654;23.370;2023-05-10T03:12:46;7.88;;;4.88;;
36931;SDS011;22847;42.654;23.370;2023-05-10T03:15:33;9.38;;;5.15;;
36931;SDS011;22847;42.654;23.370;2023-05-10T03:20:54;7.20;;;4.78;;
36931;SDS011;22847;42.654;23.370;2023-05-10T03:25:53;7.10;;;5.47;;
36931;SDS011;22847;42.654;23.370;2023-05-10T03:28:20;12.57;;;5.47;;
36931;SDS011;22847;42.654;23.370;2023-05-10T03:30:46;8.93;;;6.00;;
36931;SDS011;22847;42.654;23.370;2023-05-10T03:33:12;8.13;;;5.10;;
36931;SDS011;22847;42.654;23.370;2023-05-10T03:35:38;9.40;;;5.05;;
36931;SDS011;22847;42.654;23.370;2023-05-10T03:38:03;8.32;;;4.93;;
36931;SDS011;22847;42.654;23.370;2023-05-10T03:40:29;6.63;;;4.30;;
36931;SDS011;22847;42.654;23.370;2023-05-10T03:42:56;8.27;;;4.90;;
36931;SDS011;22847;42.654;23.370;2023-05-10T03:45:22;7.68;;;5.30;;
36931;SDS011;22847;42.654;23.370;2023-05-10T03:47:48;8.65;;;5.07;;
36931;SDS011;22847;42.654;23.370;2023-05-10T03:50:13;10.15;;;5.45;;
36931;SDS011;22847;42.654;23.370;2023-05-10T03:52:38;7.65;;;4.72;;
36931;SDS011;22847;42.654;23.370;2023-05-10T03:55:04;9.18;;;4.63;;
36931;SDS011;22847;42.654;23.370;2023-05-10T03:57:31;13.35;;;5.25;;
36931;SDS011;22847;42.654;23.370;2023-05-10T03:59:57;17.40;;;5.60;;
36931;SDS011;22847;42.654;23.370;2023-05-10T04:02:22;12.07;;;6.18;;
36931;SDS011;22847;42.654;23.370;2023-05-10T04:04:48;10.40;;;6.00;;
36931;SDS011;22847;42.654;23.370;2023-05-10T04:07:13;8.63;;;4.70;;
36931;SDS011;22847;42.654;23.370;2023-05-10T04:09:39;6.28;;;4.38;;
36931;SDS011;22847;42.654;23.370;2023-05-10T04:12:05;9.18;;;4.93;;
36931;SDS011;22847;42.654;23.370;2023-05-10T04:14:31;8.23;;;4.97;;
36931;SDS011;22847;42.654;23.370;2023-05-10T04:16:56;7.90;;;5.47;;
36931;SDS011;22847;42.654;23.370;2023-05-10T04:19:21;7.20;;;5.28;;
36931;SDS011;22847;42.654;23.370;2023-05-10T04:21:47;8.05;;;5.43;;
36931;SDS011;22847;42.654;23.370;2023-05-10T04:24:12;10.38;;;5.60;;
36931;SDS011;22847;42.654;23.370;2023-05-10T04:26:38;13.40;;;5.90;;
36931;SDS011;22847;42.654;23.370;2023-05-10T04:29:03;8.23;;;5.47;;
36931;SDS011;22847;42.654;23.370;2023-05-10T04:31:29;8.40;;;5.50;;
36931;SDS011;22847;42.654;23.370;2023-05-10T04:33:54;14.43;;;6.03;;
36931;SDS011;22847;42.654;23.370;2023-05-10T04:36:19;9.27;;;5.30;;
36931;SDS011;22847;42.654;23.370;2023-05-10T04:38:45;9.32;;;6.10;;
36931;SDS011;22847;42.654;23.370;2023-05-10T04:41:10;6.10;;;5.07;;
36931;SDS011;22847;42.654;23.370;2023-05-10T04:43:36;8.50;;;6.28;;
36931;SDS011;22847;42.654;23.370;2023-05-10T04:46:03;10.75;;;6.35;;
36931;SDS011;22847;42.654;23.370;2023-05-10T04:48:29;9.27;;;6.05;;
36931;SDS011;22847;42.654;23.370;2023-05-10T04:50:54;11.32;;;6.13;;
36931;SDS011;22847;42.654;23.370;2023-05-10T04:53:20;11.57;;;5.35;;
36931;SDS011;22847;42.654;23.370;2023-05-10T04:55:45;10.95;;;5.65;;
36931;SDS011;22847;42.654;23.370;2023-05-10T04:58:11;8.93;;;5.85;;
36931;SDS011;22847;42.654;23.370;2023-05-10T05:00:37;12.40;;;6.60;;
36931;SDS011;22847;42.654;23.370;2023-05-10T05:05:47;8.88;;;6.07;;
36931;SDS011;22847;42.654;23.370;2023-05-10T05:08:12;14.82;;;6.25;;
36931;SDS011;22847;42.654;23.370;2023-05-10T05:10:38;10.35;;;6.40;;
36931;SDS011;22847;42.654;23.370;2023-05-10T05:13:03;10.10;;;6.57;;
36931;SDS011;22847;42.654;23.370;2023-05-10T05:15:28;9.82;;;6.43;;
36931;SDS011;22847;42.654;23.370;2023-05-10T05:17:55;13.10;;;6.78;;
36931;SDS011;22847;42.654;23.370;2023-05-10T05:20:20;11.02;;;6.65;;
36931;SDS011;22847;42.654;23.370;2023-05-10T05:22:46;13.90;;;7.60;;
36931;SDS011;22847;42.654;23.370;2023-05-10T05:25:11;12.00;;;7.10;;
36931;SDS011;22847;42.654;23.370;2023-05-10T05:27:37;11.43;;;8.05;;
36931;SDS011;22847;42.654;23.370;2023-05-10T05:30:03;9.60;;;7.10;;
36931;SDS011;22847;42.654;23.370;2023-05-10T05:32:29;10.10;;;7.28;;
36931;SDS011;22847;42.654;23.370;2023-05-10T05:34:55;15.02;;;7.25;;
36931;SDS011;22847;42.654;23.370;2023-05-10T05:37:21;15.00;;;7.28;;
36931;SDS011;22847;42.654;23.370;2023-05-10T05:39:47;11.55;;;7.00;;
36931;SDS011;22847;42.654;23.370;2023-05-10T05:42:13;10.05;;;7.20;;
36931;SDS011;22847;42.654;23.370;2023-05-10T05:44:39;10.90;;;7.30;;
36931;SDS011;22847;42.654;23.370;2023-05-10T05:47:05;15.43;;;7.57;;
36931;SDS011;22847;42.654;23.370;2023-05-10T05:49:31;10.90;;;7.10;;
36931;SDS011;22847;42.654;23.370;2023-05-10T05:52:00;12.95;;;8.98;;
36931;SDS011;22847;42.654;23.370;2023-05-10T05:54:26;12.35;;;8.70;;
36931;SDS011;22847;42.654;23.370;2023-05-10T05:56:55;12.15;;;8.18;;
36931;SDS011;22847;42.654;23.370;2023-05-10T05:59:22;15.75;;;9.48;;
36931;SDS011;22847;42.654;23.370;2023-05-10T06:01:47;14.70;;;9.02;;
36931;SDS011;22847;42.654;23.370;2023-05-10T06:04:13;13.20;;;8.50;;
36931;SDS011;22847;42.654;23.370;2023-05-10T06:06:38;14.20;;;8.93;;
36931;SDS011;22847;42.654;23.370;2023-05-10T06:09:04;17.00;;;9.93;;
36931;SDS011;22847;42.654;23.370;2023-05-10T06:11:30;14.20;;;9.00;;
36931;SDS011;22847;42.654;23.370;2023-05-10T06:13:57;18.83;;;9.43;;
36931;SDS011;22847;42.654;23.370;2023-05-10T06:16:23;14.02;;;9.32;;
36931;SDS011;22847;42.654;23.370;2023-05-10T06:18:48;14.10;;;9.25;;
36931;SDS011;22847;42.654;23.370;2023-05-10T06:21:14;13.82;;;9.13;;
36931;SDS011;22847;42.654;23.370;2023-05-10T06:23:40;17.25;;;9.20;;
36931;SDS011;22847;42.654;23.370;2023-05-10T06:26:05;14.50;;;9.40;;
36931;SDS011;22847;42.654;23.370;2023-05-10T06:28:30;16.50;;;9.65;;
36931;SDS011;22847;42.654;23.370;2023-05-10T06:30:57;15.50;;;9.38;;
36931;SDS011;22847;42.654;23.370;2023-05-10T06:33:22;16.65;;;9.88;;
36931;SDS011;22847;42.654;23.370;2023-05-10T06:35:48;12.13;;;9.05;;
36931;SDS011;22847;42.654;23.370;2023-05-10T06:38:13;13.52;;;8.32;;
36931;SDS011;22847;42.654;23.370;2023-05-10T06:40:42;13.15;;;8.82;;
36931;SDS011;22847;42.654;23.370;2023-05-10T06:43:07;12.13;;;8.85;;
36931;SDS011;22847;42.654;23.370;2023-05-10T06:45:33;15.10;;;9.00;;
36931;SDS011;22847;42.654;23.370;2023-05-10T06:47:58;16.00;;;8.90;;
36931;SDS011;22847;42.654;23.370;2023-05-10T06:50:24;12.23;;;7.88;;
36931;SDS011;22847;42.654;23.370;2023-05-10T06:52:50;12.98;;;9.23;;
36931;SDS011;22847;42.654;23.370;2023-05-10T06:55:15;16.38;;;9.50;;
36931;SDS011;22847;42.654;23.370;2023-05-10T06:57:41;14.23;;;8.98;;
36931;SDS011;22847;42.654;23.370;2023-05-10T07:00:06;14.23;;;8.82;;
36931;SDS011;22847;42.654;23.370;2023-05-10T07:02:34;13.32;;;8.95;;
36931;SDS011;22847;42.654;23.370;2023-05-10T07:04:59;15.45;;;8.50;;
36931;SDS011;22847;42.654;23.370;2023-05-10T07:07:25;13.15;;;8.52;;
36931;SDS011;22847;42.654;23.370;2023-05-10T07:09:50;16.23;;;8.20;;
36931;SDS011;22847;42.654;23.370;2023-05-10T07:12:16;9.98;;;7.38;;
36931;SDS011;22847;42.654;23.370;2023-05-10T07:14:42;13.13;;;7.53;;
36931;SDS011;22847;42.654;23.370;2023-05-10T07:17:07;13.40;;;8.40;;
36931;SDS011;22847;42.654;23.370;2023-05-10T07:19:33;13.40;;;7.82;;
36931;SDS011;22847;42.654;23.370;2023-05-10T07:21:58;12.52;;;7.70;;
36931;SDS011;22847;42.654;23.370;2023-05-10T07:24:24;12.65;;;7.55;;
36931;SDS011;22847;42.654;23.370;2023-05-10T07:26:50;15.93;;;8.43;;
36931;SDS011;22847;42.654;23.370;2023-05-10T07:29:15;12.30;;;7.70;;
36931;SDS011;22847;42.654;23.370;2023-05-10T07:31:41;13.23;;;8.63;;
36931;SDS011;22847;42.654;23.370;2023-05-10T07:34:07;12.40;;;7.95;;
36931;SDS011;22847;42.654;23.370;2023-05-10T07:36:33;16.45;;;8.85;;
36931;SDS011;22847;42.654;23.370;2023-05-10T07:38:59;14.43;;;9.70;;
36931;SDS011;22847;42.654;23.370;2023-05-10T07:41:24;12.85;;;8.90;;
36931;SDS011;22847;42.654;23.370;2023-05-10T07:43:50;15.75;;;8.70;;
36931;SDS011;22847;42.654;23.370;2023-05-10T07:46:15;18.40;;;10.20;;
36931;SDS011;22847;42.654;23.370;2023-05-10T07:48:41;15.18;;;9.50;;
36931;SDS011;22847;42.654;23.370;2023-05-10T07:51:06;18.45;;;10.25;;
36931;SDS011;22847;42.654;23.370;2023-05-10T07:53:34;13.63;;;8.65;;
36931;SDS011;22847;42.654;23.370;2023-05-10T07:56:19;16.63;;;10.23;;
36931;SDS011;22847;42.654;23.370;2023-05-10T07:58:47;18.83;;;10.85;;
36931;SDS011;22847;42.654;23.370;2023-05-10T08:01:13;23.60;;;10.60;;
36931;SDS011;22847;42.654;23.370;2023-05-10T08:03:38;15.23;;;10.07;;
36931;SDS011;22847;42.654;23.370;2023-05-10T08:06:03;16.67;;;10.07;;
36931;SDS011;22847;42.654;23.370;2023-05-10T08:08:29;14.15;;;9.88;;
36931;SDS011;22847;42.654;23.370;2023-05-10T08:10:54;14.02;;;9.43;;
36931;SDS011;22847;42.654;23.370;2023-05-10T08:13:20;15.73;;;9.43;;
36931;SDS011;22847;42.654;23.370;2023-05-10T08:15:46;12.52;;;8.82;;
36931;SDS011;22847;42.654;23.370;2023-05-10T08:18:12;13.02;;;9.70;;
36931;SDS011;22847;42.654;23.370;2023-05-10T08:20:37;15.40;;;9.52;;
36931;SDS011;22847;42.654;23.370;2023-05-10T08:23:03;13.43;;;9.90;;
36931;SDS011;22847;42.654;23.370;2023-05-10T08:25:28;13.95;;;9.32;;
36931;SDS011;22847;42.654;23.370;2023-05-10T08:27:54;17.40;;;10.32;;
36931;SDS011;22847;42.654;23.370;2023-05-10T08:30:19;18.08;;;10.88;;
36931;SDS011;22847;42.654;23.370;2023-05-10T08:32:45;18.23;;;10.05;;
36931;SDS011;22847;42.654;23.370;2023-05-10T08:35:10;14.85;;;10.40;;
36931;SDS011;22847;42.654;23.370;2023-05-10T08:37:35;15.05;;;10.05;;
36931;SDS011;22847;42.654;23.370;2023-05-10T08:40:01;14.05;;;9.02;;
36931;SDS011;22847;42.654;23.370;2023-05-10T08:42:28;16.52;;;8.95;;
36931;SDS011;22847;42.654;23.370;2023-05-10T08:44:55;16.60;;;9.32;;
36931;SDS011;22847;42.654;23.370;2023-05-10T08:47:22;18.92;;;10.32;;
36931;SDS011;22847;42.654;23.370;2023-05-10T08:49:48;13.77;;;9.55;;
36931;SDS011;22847;42.654;23.370;2023-05-10T08:52:17;14.00;;;9.98;;
36931;SDS011;22847;42.654;23.370;2023-05-10T08:54:43;13.70;;;8.73;;
36931;SDS011;22847;42.654;23.370;2023-05-10T08:57:09;15.27;;;10.05;;
36931;SDS011;22847;42.654;23.370;2023-05-10T08:59:35;13.75;;;9.00;;
36931;SDS011;22847;42.654;23.370;2023-05-10T09:02:04;13.45;;;8.82;;
36931;SDS011;22847;42.654;23.370;2023-05-10T09:04:30;14.82;;;9.15;;
36931;SDS011;22847;42.654;23.370;2023-05-10T09:06:56;11.73;;;9.18;;
36931;SDS011;22847;42.654;23.370;2023-05-10T09:09:22;16.65;;;9.93;;
36931;SDS011;22847;42.654;23.370;2023-05-10T09:11:49;16.40;;;10.10;;
36931;SDS011;22847;42.654;23.370;2023-05-10T09:14:15;16.17;;;9.43;;
36931;SDS011;22847;42.654;23.370;2023-05-10T09:16:42;13.02;;;9.32;;
36931;SDS011;22847;42.654;23.370;2023-05-10T09:19:07;12.30;;;9.32;;
36931;SDS011;22847;42.654;23.370;2023-05-10T09:21:34;16.02;;;9.52;;
36931;SDS011;22847;42.654;23.370;2023-05-10T09:24:03;16.20;;;10.00;;
36931;SDS011;22847;42.654;23.370;2023-05-10T09:26:30;11.90;;;9.20;;
36931;SDS011;22847;42.654;23.370;2023-05-10T09:28:56;18.42;;;10.10;;
36931;SDS011;22847;42.654;23.370;2023-05-10T09:31:23;20.05;;;10.57;;
36931;SDS011;22847;42.654;23.370;2023-05-10T09:33:50;14.82;;;10.45;;
36931;SDS011;22847;42.654;23.370;2023-05-10T09:36:16;16.23;;;11.05;;
36931;SDS011;22847;42.654;23.370;2023-05-10T09:38:49;16.52;;;10.20;;
36931;SDS011;22847;42.654;23.370;2023-05-10T09:41:19;17.60;;;10.48;;
36931;SDS011;22847;42.654;23.370;2023-05-10T09:43:46;11.25;;;8.63;;
36931;SDS011;22847;42.654;23.370;2023-05-10T09:46:12;13.27;;;9.30;;
36931;SDS011;22847;42.654;23.370;2023-05-10T09:48:47;12.68;;;9.10;;
36931;SDS011;22847;42.654;23.370;2023-05-10T09:51:20;12.60;;;9.23;;
36931;SDS011;22847;42.654;23.370;2023-05-10T09:54:08;11.45;;;9.18;;
36931;SDS011;22847;42.654;23.370;2023-05-10T09:56:41;15.27;;;9.80;;
36931;SDS011;22847;42.654;23.370;2023-05-10T09:59:10;16.52;;;8.85;;
36931;SDS011;22847;42.654;23.370;2023-05-10T10:01:37;12.95;;;9.27;;
36931;SDS011;22847;42.654;23.370;2023-05-10T10:04:04;15.32;;;9.10;;
36931;SDS011;22847;42.654;23.370;2023-05-10T10:06:40;12.45;;;8.98;;
36931;SDS011;22847;42.654;23.370;2023-05-10T10:09:06;12.77;;;8.95;;
36931;SDS011;22847;42.654;23.370;2023-05-10T10:11:34;14.00;;;9.60;;
36931;SDS011;22847;42.654;23.370;2023-05-10T10:14:04;16.45;;;9.30;;
36931;SDS011;22847;42.654;23.370;2023-05-10T10:16:30;11.73;;;8.30;;
36931;SDS011;22847;42.654;23.370;2023-05-10T10:18:57;14.93;;;9.65;;
36931;SDS011;22847;42.654;23.370;2023-05-10T10:21:22;13.13;;;7.72;;
36931;SDS011;22847;42.654;23.370;2023-05-10T10:23:48;15.32;;;8.30;;
36931;SDS011;22847;42.654;23.370;2023-05-10T10:26:15;14.38;;;7.18;;
36931;SDS011;22847;42.654;23.370;2023-05-10T10:34:28;13.75;;;7.30;;
36931;SDS011;22847;42.654;23.370;2023-05-10T10:36:55;15.57;;;7.35;;
36931;SDS011;22847;42.654;23.370;2023-05-10T10:39:22;11.75;;;7.20;;
36931;SDS011;22847;42.654;23.370;2023-05-10T10:41:53;22.52;;;9.40;;
36931;SDS011;22847;42.654;23.370;2023-05-10T10:50:05;10.18;;;7.20;;
36931;SDS011;22847;42.654;23.370;2023-05-10T10:52:33;13.57;;;7.50;;
36931;SDS011;22847;42.654;23.370;2023-05-10T11:08:17;13.25;;;7.70;;
36931;SDS011;22847;42.654;23.370;2023-05-10T11:10:53;10.85;;;6.68;;
36931;SDS011;22847;42.654;23.370;2023-05-10T11:15:53;12.05;;;7.30;;
36931;SDS011;22847;42.654;23.370;2023-05-10T11:18:20;14.10;;;6.82;;
36931;SDS011;22847;42.654;23.370;2023-05-10T11:20:50;10.73;;;6.38;;
36931;SDS011;22847;42.654;23.370;2023-05-10T11:23:16;10.98;;;7.78;;
36931;SDS011;22847;42.654;23.370;2023-05-10T11:25:43;16.52;;;7.78;;
36931;SDS011;22847;42.654;23.370;2023-05-10T11:28:10;11.52;;;7.07;;
36931;SDS011;22847;42.654;23.370;2023-05-10T11:30:40;10.32;;;7.35;;
36931;SDS011;22847;42.654;23.370;2023-05-10T11:33:08;12.70;;;7.78;;
36931;SDS011;22847;42.654;23.370;2023-05-10T11:35:40;16.25;;;7.30;;
36931;SDS011;22847;42.654;23.370;2023-05-10T11:38:06;10.98;;;7.30;;
36931;SDS011;22847;42.654;23.370;2023-05-10T11:40:32;17.20;;;7.80;;
36931;SDS011;22847;42.654;23.370;2023-05-10T11:42:58;15.38;;;7.30;;
36931;SDS011;22847;42.654;23.370;2023-05-10T11:45:24;10.45;;;7.20;;
36931;SDS011;22847;42.654;23.370;2023-05-10T11:47:49;10.75;;;7.10;;
36931;SDS011;22847;42.654;23.370;2023-05-10T11:50:15;9.73;;;7.22;;
36931;SDS011;22847;42.654;23.370;2023-05-10T11:52:42;14.98;;;7.32;;
36931;SDS011;22847;42.654;23.370;2023-05-10T11:55:07;13.35;;;8.05;;
36931;SDS011;22847;42.654;23.370;2023-05-10T11:57:33;12.73;;;7.47;;
36931;SDS011;22847;42.654;23.370;2023-05-10T11:59:58;13.60;;;7.75;;
36931;SDS011;22847;42.654;23.370;2023-05-10T12:02:23;14.32;;;8.48;;
36931;SDS011;22847;42.654;23.370;2023-05-10T12:04:49;16.20;;;8.23;;
36931;SDS011;22847;42.654;23.370;2023-05-10T12:07:16;15.07;;;8.82;;
36931;SDS011;22847;42.654;23.370;2023-05-10T12:10:01;10.55;;;8.05;;
36931;SDS011;22847;42.654;23.370;2023-05-10T12:13:04;12.25;;;8.25;;
36931;SDS011;22847;42.654;23.370;2023-05-10T12:15:23;13.38;;;8.43;;
36931;SDS011;22847;42.654;23.370;2023-05-10T12:17:50;11.93;;;8.52;;
36931;SDS011;22847;42.654;23.370;2023-05-10T12:20:22;12.02;;;8.20;;
36931;SDS011;22847;42.654;23.370;2023-05-10T12:22:51;14.35;;;8.07;;
36931;SDS011;22847;42.654;23.370;2023-05-10T12:25:17;11.93;;;7.80;;
36931;SDS011;22847;42.654;23.370;2023-05-10T12:27:48;13.48;;;8.32;;
36931;SDS011;22847;42.654;23.370;2023-05-10T12:30:27;13.87;;;8.07;;
36931;SDS011;22847;42.654;23.370;2023-05-10T12:32:54;11.98;;;8.30;;
36931;SDS011;22847;42.654;23.370;2023-05-10T12:35:25;13.32;;;8.13;;
36931;SDS011;22847;42.654;23.370;2023-05-10T12:37:51;12.00;;;9.35;;
36931;SDS011;22847;42.654;23.370;2023-05-10T12:40:16;14.25;;;9.07;;
36931;SDS011;22847;42.654;23.370;2023-05-10T12:42:42;13.50;;;8.80;;
36931;SDS011;22847;42.654;23.370;2023-05-10T12:45:10;13.65;;;8.63;;
36931;SDS011;22847;42.654;23.370;2023-05-10T12:47:36;15.25;;;8.32;;
36931;SDS011;22847;42.654;23.370;2023-05-10T12:50:02;10.00;;;6.90;;
36931;SDS011;22847;42.654;23.370;2023-05-10T12:52:28;11.38;;;7.15;;
36931;SDS011;22847;42.654;23.370;2023-05-10T12:54:54;13.00;;;7.55;;
36931;SDS011;22847;42.654;23.370;2023-05-10T12:57:20;12.68;;;8.80;;
36931;SDS011;22847;42.654;23.370;2023-05-10T12:59:46;10.65;;;7.28;;
36931;SDS011;22847;42.654;23.370;2023-05-10T13:02:11;10.05;;;7.43;;
36931;SDS011;22847;42.654;23.370;2023-05-10T13:04:37;11.57;;;7.38;;
36931;SDS011;22847;42.654;23.370;2023-05-10T13:07:05;10.98;;;7.28;;
36931;SDS011;22847;42.654;23.370;2023-05-10T13:09:31;12.88;;;6.82;;
36931;SDS011;22847;42.654;23.370;2023-05-10T13:11:56;10.50;;;6.65;;
36931;SDS011;22847;42.654;23.370;2023-05-10T13:14:22;13.35;;;7.15;;
36931;SDS011;22847;42.654;23.370;2023-05-10T13:16:47;14.55;;;7.00;;
36931;SDS011;22847;42.654;23.370;2023-05-10T13:19:13;10.60;;;7.35;;
36931;SDS011;22847;42.654;23.370;2023-05-10T13:21:39;12.23;;;7.00;;
36931;SDS011;22847;42.654;23.370;2023-05-10T13:24:06;14.02;;;7.07;;
36931;SDS011;22847;42.654;23.370;2023-05-10T13:26:32;11.80;;;7.55;;
36931;SDS011;22847;42.654;23.370;2023-05-10T13:28:57;14.07;;;7.45;;
36931;SDS011;22847;42.654;23.370;2023-05-10T13:31:23;12.10;;;7.50;;
36931;SDS011;22847;42.654;23.370;2023-05-10T13:33:48;12.02;;;6.47;;
36931;SDS011;22847;42.654;23.370;2023-05-10T13:36:13;13.77;;;7.72;;
36931;SDS011;22847;42.654;23.370;2023-05-10T13:38:39;15.65;;;7.28;;
36931;SDS011;22847;42.654;23.370;2023-05-10T13:41:04;10.57;;;6.68;;
36931;SDS011;22847;42.654;23.370;2023-05-10T13:43:30;13.50;;;7.00;;
36931;SDS011;22847;42.654;23.370;2023-05-10T13:45:55;13.02;;;7.18;;
36931;SDS011;22847;42.654;23.370;2023-05-10T13:48:21;9.07;;;6.70;;
36931;SDS011;22847;42.654;23.370;2023-05-10T13:50:46;15.20;;;7.07;;
36931;SDS011;22847;42.654;23.370;2023-05-10T13:53:12;16.17;;;6.78;;
36931;SDS011;22847;42.654;23.370;2023-05-10T13:55:37;11.90;;;6.97;;
36931;SDS011;22847;42.654;23.370;2023-05-10T13:58:03;11.23;;;7.82;;
36931;SDS011;22847;42.654;23.370;2023-05-10T14:00:29;10.93;;;6.88;;
36931;SDS011;22847;42.654;23.370;2023-05-10T14:02:54;9.48;;;7.20;;
36931;SDS011;22847;42.654;23.370;2023-05-10T14:05:19;10.52;;;6.47;;
36931;SDS011;22847;42.654;23.370;2023-05-10T14:07:45;9.82;;;7.00;;
36931;SDS011;22847;42.654;23.370;2023-05-10T14:10:11;12.57;;;6.88;;
36931;SDS011;22847;42.654;23.370;2023-05-10T14:12:36;9.20;;;7.40;;
36931;SDS011;22847;42.654;23.370;2023-05-10T14:15:02;12.82;;;7.22;;
36931;SDS011;22847;42.654;23.370;2023-05-10T14:17:30;12.50;;;7.03;;
36931;SDS011;22847;42.654;23.370;2023-05-10T14:19:56;10.73;;;7.10;;
36931;SDS011;22847;42.654;23.370;2023-05-10T14:22:21;10.90;;;7.53;;
36931;SDS011;22847;42.654;23.370;2023-05-10T14:25:05;18.27;;;7.63;;
36931;SDS011;22847;42.654;23.370;2023-05-10T14:27:31;11.43;;;7.32;;
36931;SDS011;22847;42.654;23.370;2023-05-10T14:29:57;16.63;;;7.88;;
36931;SDS011;22847;42.654;23.370;2023-05-10T14:32:22;13.20;;;7.45;;
36931;SDS011;22847;42.654;23.370;2023-05-10T14:34:48;16.40;;;7.53;;
36931;SDS011;22847;42.654;23.370;2023-05-10T14:37:13;12.15;;;7.28;;
36931;SDS011;22847;42.654;23.370;2023-05-10T14:39:39;14.55;;;7.53;;
36931;SDS011;22847;42.654;23.370;2023-05-10T14:42:04;15.18;;;8.23;;
36931;SDS011;22847;42.654;23.370;2023-05-10T14:44:30;14.52;;;8.63;;
36931;SDS011;22847;42.654;23.370;2023-05-10T14:46:56;12.10;;;7.65;;
36931;SDS011;22847;42.654;23.370;2023-05-10T14:49:22;12.85;;;7.47;;
36931;SDS011;22847;42.654;23.370;2023-05-10T14:51:49;10.57;;;6.72;;
36931;SDS011;22847;42.654;23.370;2023-05-10T14:54:15;13.63;;;8.13;;
36931;SDS011;22847;42.654;23.370;2023-05-10T14:56:40;15.52;;;8.98;;
36931;SDS011;22847;42.654;23.370;2023-05-10T14:59:06;14.70;;;9.57;;
36931;SDS011;22847;42.654;23.370;2023-05-10T15:01:32;14.20;;;7.22;;
36931;SDS011;22847;42.654;23.370;2023-05-10T15:03:59;11.05;;;7.25;;
36931;SDS011;22847;42.654;23.370;2023-05-10T15:06:30;13.88;;;7.88;;
36931;SDS011;22847;42.654;23.370;2023-05-10T15:08:56;10.88;;;8.00;;
36931;SDS011;22847;42.654;23.370;2023-05-10T15:11:22;12.65;;;7.47;;
36931;SDS011;22847;42.654;23.370;2023-05-10T15:13:47;10.23;;;7.07;;